Airfield :
LOGIN :

Register | Disclaimer

   EN    FR    IT 

 










Legend :    VFR   Marginal VFR   IFR   Intensive IFR   Very Intensive IFR
Visi :
Ceiling :
>= 8 km
>= 3000ft
5 to 8 km
1000 to 3000 ft
1500m to 5 km
500 to 1000 ft
800 to 1500m
200 to 500 ft
< 800m
< 200 ft
Symbols :   Thunderstorms  Fog  Heavy snow  Heavy precipitations  Wind > 20 kt
SIGMETs :     Misc.  Thunderstorms  Icing  Turbulence  Mountain Waves  Volcanic Ashes






- Airport Elevation : 425 ft
- IATA code : DTM


EDLW - Dortmund

CURRENT METAR :
  • 291250Z VRB02KT CAVOK 23/15 Q1014

EXPIRED METARs :
  • 291220Z VRB02KT CAVOK 23/12 Q1014
  • 291150Z 12003KT 070V160 CAVOK 23/12 Q1014
  • 291120Z 14003KT 090V180 CAVOK 23/13 Q1015
  • 291050Z VRB02KT CAVOK 23/13 Q1015
  • 291020Z 11004KT CAVOK 21/12 Q1015
  • 290950Z 00000KT CAVOK 21/14 Q1015

TAF TAF EDLW
Valid from the 29 at 12:00 until the 30 at 12:00 UTC


291100Z 2912/3012 VRB03KT CAVOK
PROB30
TEMPO 3003/3006 4500 BR



MET'MAP, your aeronautical weather chart ! - Copyright ORBIFLY December 2007 - Disclaimer

ORBIFLY MET'MAP TEAM :

Programming & Development : Alexandra Zaïnal
Original concept : Baudouin d'Aumeries
Technical & hardware support : Manuel Goepfert
Assistance : Marc-Olivier Méhu




SOURCES & CREDITS :

   NOAA